sensor_id;sensor_type;location;lat;lon;timestamp;pressure;altitude;pressure_sealevel;temperature;humidity
10480;BME280;12789;42.610;23.040;2022-08-01T00:02:18;93597.94;;;16.64;100.00
10480;BME280;12789;42.610;23.040;2022-08-01T00:04:44;93598.22;;;16.69;100.00
10480;BME280;12789;42.610;23.040;2022-08-01T00:07:12;93597.66;;;16.59;100.00
10480;BME280;12789;42.610;23.040;2022-08-01T00:09:38;93578.28;;;16.53;100.00
10480;BME280;12789;42.610;23.040;2022-08-01T00:12:14;93585.78;;;16.71;100.00
10480;BME280;12789;42.610;23.040;2022-08-01T00:14:44;93574.31;;;16.57;100.00
10480;BME280;12789;42.610;23.040;2022-08-01T00:17:11;93586.31;;;16.52;100.00
10480;BME280;12789;42.610;23.040;2022-08-01T00:19:40;93581.50;;;16.27;100.00
10480;BME280;12789;42.610;23.040;2022-08-01T00:22:07;93578.81;;;16.78;100.00
10480;BME280;12789;42.610;23.040;2022-08-01T00:24:35;93579.44;;;16.37;100.00
10480;BME280;12789;42.610;23.040;2022-08-01T00:27:01;93585.25;;;16.24;100.00
10480;BME280;12789;42.610;23.040;2022-08-01T00:29:29;93578.25;;;16.25;100.00
10480;BME280;12789;42.610;23.040;2022-08-01T00:31:55;93571.03;;;16.27;100.00
10480;BME280;12789;42.610;23.040;2022-08-01T00:34:22;93574.94;;;16.45;100.00
10480;BME280;12789;42.610;23.040;2022-08-01T00:36:51;93579.88;;;16.26;100.00
10480;BME280;12789;42.610;23.040;2022-08-01T00:39:18;93588.19;;;16.44;100.00
10480;BME280;12789;42.610;23.040;2022-08-01T00:41:45;93575.25;;;16.28;100.00
10480;BME280;12789;42.610;23.040;2022-08-01T00:44:12;93574.81;;;16.10;100.00
10480;BME280;12789;42.610;23.040;2022-08-01T00:46:38;93575.78;;;16.23;100.00
10480;BME280;12789;42.610;23.040;2022-08-01T00:49:05;93572.91;;;16.18;100.00
10480;BME280;12789;42.610;23.040;2022-08-01T00:51:32;93576.53;;;16.32;100.00
10480;BME280;12789;42.610;23.040;2022-08-01T00:54:01;93580.31;;;16.15;100.00
10480;BME280;12789;42.610;23.040;2022-08-01T00:56:28;93578.94;;;16.04;100.00
10480;BME280;12789;42.610;23.040;2022-08-01T00:58:56;93574.44;;;16.13;100.00
10480;BME280;12789;42.610;23.040;2022-08-01T01:01:23;93581.78;;;15.95;100.00
10480;BME280;12789;42.610;23.040;2022-08-01T01:03:51;93577.03;;;15.98;100.00
10480;BME280;12789;42.610;23.040;2022-08-01T01:06:26;93573.97;;;16.09;100.00
10480;BME280;12789;42.610;23.040;2022-08-01T01:09:03;93573.50;;;15.91;100.00
10480;BME280;12789;42.610;23.040;2022-08-01T01:11:42;93567.72;;;15.96;100.00
10480;BME280;12789;42.610;23.040;2022-08-01T01:14:23;93567.56;;;15.97;100.00
10480;BME280;12789;42.610;23.040;2022-08-01T01:16:55;93564.28;;;15.81;100.00
10480;BME280;12789;42.610;23.040;2022-08-01T01:19:29;93560.25;;;15.93;100.00
10480;BME280;12789;42.610;23.040;2022-08-01T01:22:22;93552.91;;;15.74;100.00
10480;BME280;12789;42.610;23.040;2022-08-01T01:25:21;93568.41;;;15.75;100.00
10480;BME280;12789;42.610;23.040;2022-08-01T01:28:05;93568.75;;;15.72;100.00
10480;BME280;12789;42.610;23.040;2022-08-01T01:30:38;93559.38;;;15.63;100.00
10480;BME280;12789;42.610;23.040;2022-08-01T01:33:08;93556.44;;;15.44;100.00
10480;BME280;12789;42.610;23.040;2022-08-01T01:35:41;93551.19;;;15.44;100.00
10480;BME280;12789;42.610;23.040;2022-08-01T01:38:14;93558.06;;;15.45;100.00
10480;BME280;12789;42.610;23.040;2022-08-01T01:40:44;93557.34;;;15.51;100.00
10480;BME280;12789;42.610;23.040;2022-08-01T01:43:14;93557.47;;;15.57;100.00
10480;BME280;12789;42.610;23.040;2022-08-01T01:45:44;93558.91;;;15.60;100.00
10480;BME280;12789;42.610;23.040;2022-08-01T01:48:15;93564.19;;;15.52;100.00
10480;BME280;12789;42.610;23.040;2022-08-01T01:50:46;93545.00;;;15.45;100.00
10480;BME280;12789;42.610;23.040;2022-08-01T01:53:16;93559.59;;;15.54;100.00
10480;BME280;12789;42.610;23.040;2022-08-01T01:55:46;93558.78;;;15.76;100.00
10480;BME280;12789;42.610;23.040;2022-08-01T01:58:15;93558.97;;;15.52;100.00
10480;BME280;12789;42.610;23.040;2022-08-01T02:00:45;93560.47;;;15.46;100.00
10480;BME280;12789;42.610;23.040;2022-08-01T02:03:13;93558.75;;;15.39;100.00
10480;BME280;12789;42.610;23.040;2022-08-01T02:05:41;93556.06;;;15.47;100.00
10480;BME280;12789;42.610;23.040;2022-08-01T02:08:11;93555.16;;;15.40;100.00
10480;BME280;12789;42.610;23.040;2022-08-01T02:10:41;93550.97;;;15.31;100.00
10480;BME280;12789;42.610;23.040;2022-08-01T02:13:30;93546.75;;;15.22;100.00
10480;BME280;12789;42.610;23.040;2022-08-01T02:16:01;93536.94;;;15.32;100.00
10480;BME280;12789;42.610;23.040;2022-08-01T02:18:28;93545.75;;;15.23;100.00
10480;BME280;12789;42.610;23.040;2022-08-01T02:20:56;93550.56;;;15.42;100.00
10480;BME280;12789;42.610;23.040;2022-08-01T02:23:28;93547.53;;;15.53;100.00
10480;BME280;12789;42.610;23.040;2022-08-01T02:25:58;93544.84;;;15.61;100.00
10480;BME280;12789;42.610;23.040;2022-08-01T02:28:31;93548.66;;;15.36;100.00
10480;BME280;12789;42.610;23.040;2022-08-01T02:31:03;93546.78;;;15.44;100.00
10480;BME280;12789;42.610;23.040;2022-08-01T02:33:37;93546.16;;;15.12;100.00
10480;BME280;12789;42.610;23.040;2022-08-01T02:36:06;93546.88;;;15.06;100.00
10480;BME280;12789;42.610;23.040;2022-08-01T02:38:36;93548.16;;;15.10;100.00
10480;BME280;12789;42.610;23.040;2022-08-01T02:41:07;93546.31;;;14.88;100.00
10480;BME280;12789;42.610;23.040;2022-08-01T02:43:37;93552.22;;;14.82;100.00
10480;BME280;12789;42.610;23.040;2022-08-01T02:46:09;93550.88;;;14.86;100.00
10480;BME280;12789;42.610;23.040;2022-08-01T02:48:41;93554.03;;;14.82;100.00
10480;BME280;12789;42.610;23.040;2022-08-01T02:51:10;93545.47;;;15.18;100.00
10480;BME280;12789;42.610;23.040;2022-08-01T02:53:39;93548.19;;;15.02;100.00
10480;BME280;12789;42.610;23.040;2022-08-01T02:56:08;93553.78;;;14.91;100.00
10480;BME280;12789;42.610;23.040;2022-08-01T02:58:37;93548.97;;;14.80;100.00
10480;BME280;12789;42.610;23.040;2022-08-01T03:01:07;93547.13;;;14.58;100.00
10480;BME280;12789;42.610;23.040;2022-08-01T03:03:36;93555.19;;;14.41;100.00
10480;BME280;12789;42.610;23.040;2022-08-01T03:06:04;93556.09;;;14.86;100.00
10480;BME280;12789;42.610;23.040;2022-08-01T03:08:33;93546.50;;;14.56;100.00
10480;BME280;12789;42.610;23.040;2022-08-01T03:11:01;93536.69;;;14.04;100.00
10480;BME280;12789;42.610;23.040;2022-08-01T03:13:29;93552.75;;;14.39;100.00
10480;BME280;12789;42.610;23.040;2022-08-01T03:15:58;93555.69;;;15.05;100.00
10480;BME280;12789;42.610;23.040;2022-08-01T03:18:28;93543.09;;;14.78;100.00
10480;BME280;12789;42.610;23.040;2022-08-01T03:20:58;93527.88;;;14.21;100.00
10480;BME280;12789;42.610;23.040;2022-08-01T03:23:27;93535.22;;;14.86;100.00
10480;BME280;12789;42.610;23.040;2022-08-01T03:25:57;93521.97;;;14.65;100.00
10480;BME280;12789;42.610;23.040;2022-08-01T03:28:25;93538.63;;;15.17;100.00
10480;BME280;12789;42.610;23.040;2022-08-01T03:30:53;93535.59;;;15.05;100.00
10480;BME280;12789;42.610;23.040;2022-08-01T03:33:21;93537.97;;;14.93;100.00
10480;BME280;12789;42.610;23.040;2022-08-01T03:35:53;93531.59;;;14.26;100.00
10480;BME280;12789;42.610;23.040;2022-08-01T03:38:23;93559.78;;;14.69;100.00
10480;BME280;12789;42.610;23.040;2022-08-01T03:40:53;93551.97;;;14.23;100.00
10480;BME280;12789;42.610;23.040;2022-08-01T03:43:30;93560.38;;;15.62;100.00
10480;BME280;12789;42.610;23.040;2022-08-01T03:46:03;93569.56;;;18.70;100.00
10480;BME280;12789;42.610;23.040;2022-08-01T03:48:33;93583.00;;;16.21;100.00
10480;BME280;12789;42.610;23.040;2022-08-01T03:51:05;93554.56;;;15.30;100.00
10480;BME280;12789;42.610;23.040;2022-08-01T03:53:35;93573.00;;;14.68;100.00
10480;BME280;12789;42.610;23.040;2022-08-01T03:56:04;93559.50;;;14.94;100.00
10480;BME280;12789;42.610;23.040;2022-08-01T03:58:34;93560.97;;;14.97;100.00
10480;BME280;12789;42.610;23.040;2022-08-01T04:01:01;93561.75;;;14.97;100.00
10480;BME280;12789;42.610;23.040;2022-08-01T04:03:30;93561.91;;;14.11;100.00
10480;BME280;12789;42.610;23.040;2022-08-01T04:05:57;93563.72;;;14.65;100.00
10480;BME280;12789;42.610;23.040;2022-08-01T04:08:34;93564.22;;;14.91;100.00
10480;BME280;12789;42.610;23.040;2022-08-01T04:11:24;93567.72;;;14.84;100.00
10480;BME280;12789;42.610;23.040;2022-08-01T04:14:11;93574.97;;;17.09;100.00
10480;BME280;12789;42.610;23.040;2022-08-01T04:16:38;93555.75;;;18.62;100.00
10480;BME280;12789;42.610;23.040;2022-08-01T04:19:05;93571.84;;;18.52;100.00
10480;BME280;12789;42.610;23.040;2022-08-01T04:21:34;93558.25;;;18.15;100.00
10480;BME280;12789;42.610;23.040;2022-08-01T04:24:09;93561.91;;;18.20;100.00
10480;BME280;12789;42.610;23.040;2022-08-01T04:26:38;93566.16;;;16.81;100.00
10480;BME280;12789;42.610;23.040;2022-08-01T04:29:06;93563.38;;;15.88;100.00
10480;BME280;12789;42.610;23.040;2022-08-01T04:31:37;93563.69;;;15.56;100.00
10480;BME280;12789;42.610;23.040;2022-08-01T04:34:06;93559.91;;;17.32;100.00
10480;BME280;12789;42.610;23.040;2022-08-01T04:36:35;93571.81;;;17.14;100.00
10480;BME280;12789;42.610;23.040;2022-08-01T04:39:05;93560.16;;;16.01;100.00
10480;BME280;12789;42.610;23.040;2022-08-01T04:41:34;93555.06;;;15.70;100.00
10480;BME280;12789;42.610;23.040;2022-08-01T04:44:02;93555.22;;;15.32;100.00
10480;BME280;12789;42.610;23.040;2022-08-01T04:46:29;93554.56;;;15.22;100.00
10480;BME280;12789;42.610;23.040;2022-08-01T04:48:59;93553.53;;;15.39;100.00
10480;BME280;12789;42.610;23.040;2022-08-01T04:51:27;93563.97;;;15.61;100.00
10480;BME280;12789;42.610;23.040;2022-08-01T04:53:54;93563.91;;;15.47;100.00
10480;BME280;12789;42.610;23.040;2022-08-01T04:56:24;93559.53;;;15.62;100.00
10480;BME280;12789;42.610;23.040;2022-08-01T04:58:51;93557.19;;;15.67;100.00
10480;BME280;12789;42.610;23.040;2022-08-01T05:01:38;93554.53;;;15.38;100.00
10480;BME280;12789;42.610;23.040;2022-08-01T05:04:05;93542.03;;;14.95;100.00
10480;BME280;12789;42.610;23.040;2022-08-01T05:06:32;93548.09;;;15.63;100.00
10480;BME280;12789;42.610;23.040;2022-08-01T05:09:00;93561.13;;;15.71;100.00
10480;BME280;12789;42.610;23.040;2022-08-01T05:11:28;93561.13;;;15.85;100.00
10480;BME280;12789;42.610;23.040;2022-08-01T05:13:56;93560.53;;;15.98;100.00
10480;BME280;12789;42.610;23.040;2022-08-01T05:16:23;93561.28;;;15.69;100.00
10480;BME280;12789;42.610;23.040;2022-08-01T05:18:50;93548.19;;;16.06;100.00
10480;BME280;12789;42.610;23.040;2022-08-01T05:21:17;93552.53;;;15.99;100.00
10480;BME280;12789;42.610;23.040;2022-08-01T05:23:44;93560.94;;;16.24;100.00
10480;BME280;12789;42.610;23.040;2022-08-01T05:26:14;93559.44;;;16.07;100.00
10480;BME280;12789;42.610;23.040;2022-08-01T05:28:43;93558.66;;;16.21;100.00
10480;BME280;12789;42.610;23.040;2022-08-01T05:31:10;93573.16;;;19.63;100.00
10480;BME280;12789;42.610;23.040;2022-08-01T05:33:37;93567.72;;;19.97;100.00
10480;BME280;12789;42.610;23.040;2022-08-01T05:36:04;93568.75;;;20.54;100.00
10480;BME280;12789;42.610;23.040;2022-08-01T05:38:31;93565.75;;;20.25;100.00
10480;BME280;12789;42.610;23.040;2022-08-01T05:40:58;93571.72;;;19.01;100.00
10480;BME280;12789;42.610;23.040;2022-08-01T05:43:25;93554.81;;;19.23;100.00
10480;BME280;12789;42.610;23.040;2022-08-01T05:45:54;93565.25;;;19.03;100.00
10480;BME280;12789;42.610;23.040;2022-08-01T05:48:22;93567.97;;;20.08;100.00
10480;BME280;12789;42.610;23.040;2022-08-01T05:50:49;93568.59;;;20.10;100.00
10480;BME280;12789;42.610;23.040;2022-08-01T05:53:16;93551.69;;;20.63;100.00
10480;BME280;12789;42.610;23.040;2022-08-01T05:55:43;93563.72;;;20.20;100.00
10480;BME280;12789;42.610;23.040;2022-08-01T05:58:11;93557.25;;;20.23;100.00
10480;BME280;12789;42.610;23.040;2022-08-01T06:00:38;93553.34;;;20.45;100.00
10480;BME280;12789;42.610;23.040;2022-08-01T06:03:06;93544.38;;;20.91;100.00
10480;BME280;12789;42.610;23.040;2022-08-01T06:05:33;93552.56;;;21.14;100.00
10480;BME280;12789;42.610;23.040;2022-08-01T06:08:00;93554.50;;;20.94;100.00
10480;BME280;12789;42.610;23.040;2022-08-01T06:10:27;93553.34;;;20.38;100.00
10480;BME280;12789;42.610;23.040;2022-08-01T06:12:54;93549.22;;;19.39;100.00
10480;BME280;12789;42.610;23.040;2022-08-01T06:15:21;93548.84;;;20.71;100.00
10480;BME280;12789;42.610;23.040;2022-08-01T06:17:47;93552.81;;;21.13;100.00
10480;BME280;12789;42.610;23.040;2022-08-01T06:20:16;93558.31;;;21.86;100.00
10480;BME280;12789;42.610;23.040;2022-08-01T06:22:43;93537.66;;;22.92;100.00
10480;BME280;12789;42.610;23.040;2022-08-01T06:25:10;93550.50;;;22.71;100.00
10480;BME280;12789;42.610;23.040;2022-08-01T06:27:36;93555.44;;;21.50;100.00
10480;BME280;12789;42.610;23.040;2022-08-01T06:30:05;93552.97;;;20.28;100.00
10480;BME280;12789;42.610;23.040;2022-08-01T06:32:32;93540.47;;;21.44;100.00
10480;BME280;12789;42.610;23.040;2022-08-01T06:34:59;93547.94;;;22.82;100.00
10480;BME280;12789;42.610;23.040;2022-08-01T06:37:30;93538.47;;;23.46;100.00
10480;BME280;12789;42.610;23.040;2022-08-01T06:40:07;93537.16;;;21.55;100.00
10480;BME280;12789;42.610;23.040;2022-08-01T06:42:35;93533.66;;;20.86;100.00
10480;BME280;12789;42.610;23.040;2022-08-01T06:45:02;93527.75;;;22.27;100.00
10480;BME280;12789;42.610;23.040;2022-08-01T06:47:29;93526.19;;;23.52;100.00
10480;BME280;12789;42.610;23.040;2022-08-01T06:49:56;93512.69;;;21.04;92.09
10480;BME280;12789;42.610;23.040;2022-08-01T06:52:23;93514.22;;;20.68;95.45
10480;BME280;12789;42.610;23.040;2022-08-01T06:54:51;93512.00;;;21.90;100.00
10480;BME280;12789;42.610;23.040;2022-08-01T06:57:18;93506.59;;;21.78;88.43
10480;BME280;12789;42.610;23.040;2022-08-01T06:59:45;93508.69;;;21.70;91.37
10480;BME280;12789;42.610;23.040;2022-08-01T07:02:12;93507.97;;;21.50;91.35
10480;BME280;12789;42.610;23.040;2022-08-01T07:04:39;93504.91;;;21.22;89.70
10480;BME280;12789;42.610;23.040;2022-08-01T07:07:06;93501.91;;;21.49;91.84
10480;BME280;12789;42.610;23.040;2022-08-01T07:09:33;93509.66;;;21.44;88.44
10480;BME280;12789;42.610;23.040;2022-08-01T07:12:01;93506.28;;;21.93;90.53
10480;BME280;12789;42.610;23.040;2022-08-01T07:14:28;93512.41;;;22.36;87.77
10480;BME280;12789;42.610;23.040;2022-08-01T07:16:55;93510.63;;;22.30;84.56
10480;BME280;12789;42.610;23.040;2022-08-01T07:19:22;93515.66;;;22.80;96.07
10480;BME280;12789;42.610;23.040;2022-08-01T07:21:49;93513.69;;;22.09;86.51
10480;BME280;12789;42.610;23.040;2022-08-01T07:24:16;93513.28;;;22.30;83.15
10480;BME280;12789;42.610;23.040;2022-08-01T07:26:45;93505.91;;;22.14;85.19
10480;BME280;12789;42.610;23.040;2022-08-01T07:29:13;93504.25;;;22.19;83.37
10480;BME280;12789;42.610;23.040;2022-08-01T07:31:40;93501.47;;;22.57;83.16
10480;BME280;12789;42.610;23.040;2022-08-01T07:34:08;93495.34;;;22.56;84.30
10480;BME280;12789;42.610;23.040;2022-08-01T07:36:35;93506.00;;;23.03;85.03
10480;BME280;12789;42.610;23.040;2022-08-01T07:39:02;93502.72;;;23.26;80.41
10480;BME280;12789;42.610;23.040;2022-08-01T07:41:29;93498.06;;;23.39;80.09
10480;BME280;12789;42.610;23.040;2022-08-01T07:43:56;93496.84;;;23.06;79.84
10480;BME280;12789;42.610;23.040;2022-08-01T07:46:24;93498.53;;;22.65;80.61
10480;BME280;12789;42.610;23.040;2022-08-01T07:48:51;93492.75;;;23.69;76.60
10480;BME280;12789;42.610;23.040;2022-08-01T07:51:19;93492.31;;;23.13;74.76
10480;BME280;12789;42.610;23.040;2022-08-01T07:53:46;93494.22;;;23.94;74.60
10480;BME280;12789;42.610;23.040;2022-08-01T07:56:13;93491.63;;;22.99;77.27
10480;BME280;12789;42.610;23.040;2022-08-01T07:58:40;93489.13;;;23.04;73.35
10480;BME280;12789;42.610;23.040;2022-08-01T08:01:07;93491.22;;;23.32;74.10
10480;BME280;12789;42.610;23.040;2022-08-01T08:03:36;93495.69;;;23.90;71.33
10480;BME280;12789;42.610;23.040;2022-08-01T08:06:04;93504.25;;;23.15;71.75
10480;BME280;12789;42.610;23.040;2022-08-01T08:08:31;93495.41;;;23.39;68.86
10480;BME280;12789;42.610;23.040;2022-08-01T08:11:00;93499.13;;;22.84;70.73
10480;BME280;12789;42.610;23.040;2022-08-01T08:13:27;93492.91;;;22.97;70.91
10480;BME280;12789;42.610;23.040;2022-08-01T08:15:54;93498.75;;;22.99;69.33
10480;BME280;12789;42.610;23.040;2022-08-01T08:18:21;93496.47;;;23.02;69.84
10480;BME280;12789;42.610;23.040;2022-08-01T08:20:49;93494.38;;;23.11;70.90
10480;BME280;12789;42.610;23.040;2022-08-01T08:23:16;93498.25;;;23.26;67.19
10480;BME280;12789;42.610;23.040;2022-08-01T08:26:01;93493.91;;;23.14;68.41
10480;BME280;12789;42.610;23.040;2022-08-01T08:28:28;93497.94;;;23.75;65.38
10480;BME280;12789;42.610;23.040;2022-08-01T08:30:55;93485.38;;;24.00;64.67
10480;BME280;12789;42.610;23.040;2022-08-01T08:33:23;93483.25;;;23.50;62.93
10480;BME280;12789;42.610;23.040;2022-08-01T08:35:52;93479.50;;;24.21;62.56
10480;BME280;12789;42.610;23.040;2022-08-01T08:38:19;93490.34;;;24.08;60.51
10480;BME280;12789;42.610;23.040;2022-08-01T08:40:46;93478.25;;;24.24;58.79
10480;BME280;12789;42.610;23.040;2022-08-01T08:43:15;93475.03;;;25.30;59.84
10480;BME280;12789;42.610;23.040;2022-08-01T08:45:43;93474.19;;;25.01;59.69
10480;BME280;12789;42.610;23.040;2022-08-01T08:48:12;93468.47;;;24.70;60.19
10480;BME280;12789;42.610;23.040;2022-08-01T08:50:40;93462.38;;;24.58;60.71
10480;BME280;12789;42.610;23.040;2022-08-01T08:53:10;93468.47;;;24.01;59.52
10480;BME280;12789;42.610;23.040;2022-08-01T08:55:37;93472.66;;;24.54;60.54
10480;BME280;12789;42.610;23.040;2022-08-01T08:58:04;93458.03;;;25.42;59.56
10480;BME280;12789;42.610;23.040;2022-08-01T09:00:32;93450.91;;;24.92;56.40
10480;BME280;12789;42.610;23.040;2022-08-01T09:03:01;93437.94;;;25.18;56.70
10480;BME280;12789;42.610;23.040;2022-08-01T09:05:28;93458.16;;;25.92;57.49
10480;BME280;12789;42.610;23.040;2022-08-01T09:07:56;93455.50;;;25.36;55.06
10480;BME280;12789;42.610;23.040;2022-08-01T09:10:25;93444.50;;;25.44;56.84
10480;BME280;12789;42.610;23.040;2022-08-01T09:13:02;93454.41;;;25.48;55.99
10480;BME280;12789;42.610;23.040;2022-08-01T09:15:38;93442.28;;;24.85;57.90
10480;BME280;12789;42.610;23.040;2022-08-01T09:18:05;93430.59;;;25.37;55.50
10480;BME280;12789;42.610;23.040;2022-08-01T09:20:32;93437.13;;;25.18;56.13
10480;BME280;12789;42.610;23.040;2022-08-01T09:23:01;93432.72;;;25.68;54.44
10480;BME280;12789;42.610;23.040;2022-08-01T09:25:30;93439.16;;;26.16;55.10
10480;BME280;12789;42.610;23.040;2022-08-01T09:28:03;93452.84;;;25.64;55.06
10480;BME280;12789;42.610;23.040;2022-08-01T09:30:37;93443.03;;;24.97;56.24
10480;BME280;12789;42.610;23.040;2022-08-01T09:33:05;93432.72;;;25.68;55.59
10480;BME280;12789;42.610;23.040;2022-08-01T09:35:34;93432.53;;;25.86;55.96
10480;BME280;12789;42.610;23.040;2022-08-01T09:38:12;93432.59;;;26.23;52.52
10480;BME280;12789;42.610;23.040;2022-08-01T09:40:52;93428.91;;;26.24;55.31
10480;BME280;12789;42.610;23.040;2022-08-01T09:43:21;93435.03;;;26.25;55.08
10480;BME280;12789;42.610;23.040;2022-08-01T09:45:48;93433.03;;;26.70;52.01
10480;BME280;12789;42.610;23.040;2022-08-01T09:48:16;93421.53;;;26.86;49.81
10480;BME280;12789;42.610;23.040;2022-08-01T09:50:45;93426.63;;;26.87;49.77
10480;BME280;12789;42.610;23.040;2022-08-01T09:53:14;93427.59;;;27.46;48.99
10480;BME280;12789;42.610;23.040;2022-08-01T09:55:42;93444.84;;;26.24;50.25
10480;BME280;12789;42.610;23.040;2022-08-01T09:58:11;93432.72;;;25.12;54.03
10480;BME280;12789;42.610;23.040;2022-08-01T10:00:39;93428.25;;;26.01;52.17
10480;BME280;12789;42.610;23.040;2022-08-01T10:03:20;93424.41;;;26.08;53.06
10480;BME280;12789;42.610;23.040;2022-08-01T10:05:48;93424.25;;;26.31;52.17
10480;BME280;12789;42.610;23.040;2022-08-01T10:08:15;93426.91;;;25.98;52.68
10480;BME280;12789;42.610;23.040;2022-08-01T10:11:07;93423.91;;;26.11;51.62
10480;BME280;12789;42.610;23.040;2022-08-01T10:13:35;93432.38;;;26.08;52.15
10480;BME280;12789;42.610;23.040;2022-08-01T10:16:03;93422.50;;;26.58;51.09
10480;BME280;12789;42.610;23.040;2022-08-01T10:18:34;93430.25;;;25.78;50.61
10480;BME280;12789;42.610;23.040;2022-08-01T10:21:03;93415.34;;;26.59;48.91
10480;BME280;12789;42.610;23.040;2022-08-01T10:23:34;93412.94;;;26.24;49.45
10480;BME280;12789;42.610;23.040;2022-08-01T10:26:01;93396.47;;;27.25;48.09
10480;BME280;12789;42.610;23.040;2022-08-01T10:28:30;93407.94;;;27.25;47.18
10480;BME280;12789;42.610;23.040;2022-08-01T10:31:00;93411.50;;;27.09;50.43
10480;BME280;12789;42.610;23.040;2022-08-01T10:33:29;93409.09;;;27.60;49.42
10480;BME280;12789;42.610;23.040;2022-08-01T10:35:57;93408.72;;;26.61;51.06
10480;BME280;12789;42.610;23.040;2022-08-01T10:38:24;93403.13;;;27.75;50.88
10480;BME280;12789;42.610;23.040;2022-08-01T10:40:54;93412.50;;;28.14;50.35
10480;BME280;12789;42.610;23.040;2022-08-01T10:43:23;93402.53;;;27.99;49.97
10480;BME280;12789;42.610;23.040;2022-08-01T10:45:51;93403.75;;;27.87;49.38
10480;BME280;12789;42.610;23.040;2022-08-01T10:48:24;93404.63;;;27.92;50.01
10480;BME280;12789;42.610;23.040;2022-08-01T10:50:55;93401.13;;;27.65;50.20
10480;BME280;12789;42.610;23.040;2022-08-01T10:53:26;93403.34;;;28.00;49.01
10480;BME280;12789;42.610;23.040;2022-08-01T10:55:58;93402.09;;;28.07;50.09
10480;BME280;12789;42.610;23.040;2022-08-01T10:58:28;93405.84;;;27.80;51.37
10480;BME280;12789;42.610;23.040;2022-08-01T11:01:23;93397.34;;;26.87;51.63
10480;BME280;12789;42.610;23.040;2022-08-01T11:04:06;93389.03;;;28.11;51.67
10480;BME280;12789;42.610;23.040;2022-08-01T11:06:42;93396.78;;;28.12;50.23
10480;BME280;12789;42.610;23.040;2022-08-01T11:09:23;93389.72;;;28.28;51.71
10480;BME280;12789;42.610;23.040;2022-08-01T11:11:58;93394.66;;;28.14;49.62
10480;BME280;12789;42.610;23.040;2022-08-01T11:14:26;93398.16;;;28.20;49.79
10480;BME280;12789;42.610;23.040;2022-08-01T11:16:53;93395.25;;;28.63;51.59
10480;BME280;12789;42.610;23.040;2022-08-01T11:19:23;93392.06;;;29.17;50.21
10480;BME280;12789;42.610;23.040;2022-08-01T11:22:00;93391.47;;;27.28;52.15
10480;BME280;12789;42.610;23.040;2022-08-01T11:24:54;93390.81;;;28.00;52.56
10480;BME280;12789;42.610;23.040;2022-08-01T11:27:25;93393.84;;;27.51;51.97
10480;BME280;12789;42.610;23.040;2022-08-01T11:30:21;93392.97;;;28.03;51.65
10480;BME280;12789;42.610;23.040;2022-08-01T11:32:49;93387.94;;;28.07;51.19
10480;BME280;12789;42.610;23.040;2022-08-01T11:35:19;93377.78;;;28.87;50.57
10480;BME280;12789;42.610;23.040;2022-08-01T11:37:49;93377.34;;;27.80;51.01
10480;BME280;12789;42.610;23.040;2022-08-01T11:40:19;93383.16;;;28.09;50.59
10480;BME280;12789;42.610;23.040;2022-08-01T11:42:47;93368.75;;;28.93;48.49
10480;BME280;12789;42.610;23.040;2022-08-01T11:45:14;93370.06;;;28.39;48.63
10480;BME280;12789;42.610;23.040;2022-08-01T11:47:46;93368.50;;;28.48;49.95
10480;BME280;12789;42.610;23.040;2022-08-01T11:50:43;93370.16;;;28.59;48.62
10480;BME280;12789;42.610;23.040;2022-08-01T11:53:10;93362.97;;;28.23;50.26
10480;BME280;12789;42.610;23.040;2022-08-01T11:55:45;93369.22;;;28.33;49.54
10480;BME280;12789;42.610;23.040;2022-08-01T11:58:13;93370.41;;;28.52;50.02
10480;BME280;12789;42.610;23.040;2022-08-01T12:00:41;93355.19;;;28.11;48.81
10480;BME280;12789;42.610;23.040;2022-08-01T12:03:08;93374.03;;;28.83;48.07
10480;BME280;12789;42.610;23.040;2022-08-01T12:05:35;93363.25;;;27.58;51.34
10480;BME280;12789;42.610;23.040;2022-08-01T12:08:05;93367.25;;;28.24;50.37
10480;BME280;12789;42.610;23.040;2022-08-01T12:10:35;93363.53;;;29.42;47.68
10480;BME280;12789;42.610;23.040;2022-08-01T12:13:04;93363.41;;;28.88;47.31
10480;BME280;12789;42.610;23.040;2022-08-01T12:15:34;93381.31;;;27.78;50.35
10480;BME280;12789;42.610;23.040;2022-08-01T12:18:02;93374.13;;;28.46;49.97
10480;BME280;12789;42.610;23.040;2022-08-01T12:20:31;93378.50;;;29.33;48.64
10480;BME280;12789;42.610;23.040;2022-08-01T12:23:00;93359.03;;;28.72;48.65
10480;BME280;12789;42.610;23.040;2022-08-01T12:25:29;93356.81;;;29.20;46.92
10480;BME280;12789;42.610;23.040;2022-08-01T12:28:00;93363.59;;;30.62;46.04
10480;BME280;12789;42.610;23.040;2022-08-01T12:30:28;93366.28;;;28.30;48.44
10480;BME280;12789;42.610;23.040;2022-08-01T12:33:01;93352.78;;;28.46;48.18
10480;BME280;12789;42.610;23.040;2022-08-01T12:35:29;93360.25;;;28.13;48.45
10480;BME280;12789;42.610;23.040;2022-08-01T12:37:58;93364.16;;;28.32;47.34
10480;BME280;12789;42.610;23.040;2022-08-01T12:40:27;93353.38;;;29.34;47.51
10480;BME280;12789;42.610;23.040;2022-08-01T12:42:58;93359.34;;;29.61;45.92
10480;BME280;12789;42.610;23.040;2022-08-01T12:45:26;93351.78;;;29.33;47.33
10480;BME280;12789;42.610;23.040;2022-08-01T12:47:55;93355.56;;;28.76;46.65
10480;BME280;12789;42.610;23.040;2022-08-01T12:50:27;93335.97;;;30.77;42.91
10480;BME280;12789;42.610;23.040;2022-08-01T12:52:56;93341.19;;;29.88;45.32
10480;BME280;12789;42.610;23.040;2022-08-01T12:55:25;93336.63;;;29.84;46.21
10480;BME280;12789;42.610;23.040;2022-08-01T12:58:04;93330.47;;;30.28;45.54
10480;BME280;12789;42.610;23.040;2022-08-01T13:00:32;93337.44;;;30.14;44.50